Itabira, Brazil
Current Conditions -  °F | °C
As of 12:00 PM on Friday 31 Oct 2014 (Local Time) from SBPL Reporting Station
Scattered Clouds Scattered Clouds  
Wind Chill: 93°   Ceiling: Unl
Heat Index: 94°   Visibility: 6mi
Dew Point: 63°   Wind: 12mph
Humidity: 36%   Direction: 120°ESE
Pressure: 29.97"   Gusts: NA
Location:  11.55°S, 40.45°W
Report Text: SBPL 311500Z 12010KT 9999 SCT040 34/17 Q1015
Loading
Personal Weather Stations






























Interactive Weather Map
Tropical Storm Tracking
New forecast layout! Learn more

10-Day Weather Forecast

Advertisements
Track Severe Weather on mobile